createdAt,value
2019-06-07T00:01:53.314Z,16.01
2019-06-07T00:06:55.158Z,16.01
2019-06-07T00:11:57.057Z,15.90
2019-06-07T00:17:00.200Z,15.94
2019-06-07T00:22:30.051Z,16.06
2019-06-07T00:27:05.807Z,16.04
2019-06-07T00:32:09.153Z,15.80
2019-06-07T00:37:12.715Z,15.73
2019-06-07T00:42:18.549Z,15.81
2019-06-07T00:47:23.102Z,15.73
2019-06-07T00:53:11.513Z,15.78
2019-06-07T00:57:26.330Z,15.76
2019-06-07T01:02:31.370Z,15.83
2019-06-07T01:07:31.903Z,15.67
2019-06-07T01:12:33.778Z,15.72
2019-06-07T01:17:50.103Z,15.65
2019-06-07T01:22:39.530Z,15.48
2019-06-07T01:27:41.345Z,15.26
2019-06-07T01:32:43.140Z,15.19
2019-06-07T01:37:44.978Z,15.06
2019-06-07T01:42:46.934Z,15.22
2019-06-07T01:47:48.794Z,15.20
2019-06-07T01:52:50.593Z,15.19
2019-06-07T01:57:52.439Z,15.06
2019-06-07T02:02:54.280Z,14.68
2019-06-07T02:07:56.099Z,14.58
2019-06-07T02:12:57.917Z,14.41
2019-06-07T02:17:59.762Z,14.50
2019-06-07T02:23:01.637Z,14.55
2019-06-07T02:28:26.596Z,14.71
2019-06-07T02:33:07.205Z,14.93
2019-06-07T02:38:09.017Z,15.03
2019-06-07T02:43:10.979Z,15.12
2019-06-07T02:48:12.832Z,15.01
2019-06-07T02:53:15.755Z,14.70
2019-06-07T02:58:17.617Z,14.58
2019-06-07T03:03:19.606Z,14.81
2019-06-07T03:08:21.482Z,14.86
2019-06-07T03:13:23.577Z,14.87
2019-06-07T03:18:29.087Z,14.85
2019-06-07T03:23:32.419Z,14.72
2019-06-07T03:28:37.478Z,14.85
2019-06-07T03:33:42.937Z,14.85
2019-06-07T03:38:42.515Z,14.72
2019-06-07T03:43:44.512Z,14.39
2019-06-07T03:48:46.433Z,14.32
2019-06-07T03:53:48.226Z,14.53
2019-06-07T03:58:50.718Z,14.69
2019-06-07T04:03:52.772Z,14.93
2019-06-07T04:08:54.628Z,14.90
2019-06-07T04:13:56.522Z,14.91
2019-06-07T04:18:58.366Z,14.35
2019-06-07T04:24:00.146Z,14.07
2019-06-07T04:29:32.240Z,14.19
2019-06-07T04:34:05.739Z,14.26
2019-06-07T04:39:07.594Z,14.25
2019-06-07T04:44:10.841Z,14.16
2019-06-07T04:49:14.585Z,14.25
2019-06-07T04:54:16.449Z,14.45
2019-06-07T05:00:00.421Z,14.64
2019-06-07T05:04:22.164Z,14.90
2019-06-07T05:09:24.029Z,15.02
2019-06-07T05:14:25.911Z,15.00
2019-06-07T05:19:27.712Z,15.23
2019-06-07T05:24:30.720Z,15.25
2019-06-07T05:29:36.676Z,15.52
2019-06-07T05:34:39.375Z,15.83
2019-06-07T05:39:45.584Z,15.96
2019-06-07T05:44:45.890Z,16.31
2019-06-07T05:49:47.890Z,16.63
2019-06-07T05:54:49.689Z,16.91
2019-06-07T05:59:51.537Z,17.18
2019-06-07T06:04:53.377Z,17.95
2019-06-07T06:09:55.163Z,18.37
2019-06-07T06:14:57.015Z,18.77
2019-06-07T06:19:58.899Z,19.18
2019-06-07T06:25:30.644Z,19.70
2019-06-07T06:30:08.127Z,20.14
2019-06-07T06:35:10.355Z,20.56
2019-06-07T06:40:12.725Z,20.97
2019-06-07T06:45:15.049Z,21.25
2019-06-07T06:50:17.172Z,21.71
2019-06-07T06:55:19.087Z,22.08
2019-06-07T07:00:50.355Z,22.42
2019-06-07T07:05:50.835Z,22.74
2019-06-07T07:10:53.280Z,23.17
2019-06-07T07:15:57.893Z,23.36
2019-06-07T07:20:58.937Z,23.81
2019-06-07T07:26:00.733Z,24.13
2019-06-07T07:31:02.563Z,24.55
2019-06-07T07:36:18.931Z,24.86
2019-06-07T07:41:15.218Z,25.23
2019-06-07T07:46:29.082Z,25.60
2019-06-07T07:51:16.621Z,25.75
2019-06-07T07:56:18.564Z,25.99
2019-06-07T08:01:21.541Z,26.20
2019-06-07T08:06:23.409Z,26.56
2019-06-07T08:11:25.221Z,26.77
2019-06-07T08:16:27.018Z,26.99
2019-06-07T08:21:28.967Z,27.16
2019-06-07T08:26:30.925Z,27.39
2019-06-07T08:31:33.014Z,27.42
2019-06-07T08:36:41.902Z,27.59
2019-06-07T08:41:53.400Z,27.72
2019-06-07T08:46:42.705Z,27.85
2019-06-07T08:51:44.547Z,28.19
2019-06-07T08:56:46.400Z,28.50
2019-06-07T09:01:48.065Z,28.48
2019-06-07T09:11:54.709Z,28.51
2019-06-07T09:17:01.304Z,28.70
2019-06-07T09:22:07.075Z,28.21
2019-06-07T09:27:07.886Z,27.86
2019-06-07T09:32:12.123Z,27.72
2019-06-07T09:38:03.146Z,28.34
2019-06-07T09:42:18.306Z,28.53
2019-06-07T09:47:31.858Z,28.89
2019-06-07T09:52:23.679Z,29.05
2019-06-07T09:57:25.637Z,29.27
2019-06-07T10:02:27.339Z,29.31
2019-06-07T10:07:31.962Z,29.63
2019-06-07T10:12:32.979Z,29.94
2019-06-07T10:17:35.937Z,30.25
2019-06-07T10:22:37.704Z,30.37
2019-06-07T10:27:39.426Z,30.48
2019-06-07T10:32:41.444Z,30.55
2019-06-07T10:37:43.315Z,30.38
2019-06-07T10:42:45.120Z,30.66
2019-06-07T10:47:47.445Z,30.14
2019-06-07T10:52:49.497Z,30.16
2019-06-07T10:57:51.489Z,30.12
2019-06-07T11:02:55.321Z,30.09
2019-06-07T11:08:00.463Z,30.38
2019-06-07T11:13:00.943Z,30.39
2019-06-07T11:18:02.960Z,30.85
2019-06-07T11:23:06.687Z,30.56
2019-06-07T11:28:10.412Z,30.83
2019-06-07T11:33:15.756Z,30.30
2019-06-07T11:38:16.679Z,30.87
2019-06-07T11:43:19.039Z,30.66
2019-06-07T11:48:21.343Z,30.67
2019-06-07T11:53:23.378Z,30.83
2019-06-07T11:58:25.370Z,30.93
2019-06-07T12:03:27.351Z,31.08
2019-06-07T12:08:29.397Z,30.26
2019-06-07T12:13:31.755Z,29.76
2019-06-07T12:18:33.827Z,29.58
2019-06-07T12:23:35.792Z,29.65
2019-06-07T12:28:37.727Z,29.75
2019-06-07T12:33:39.612Z,30.25
2019-06-07T12:38:41.222Z,30.38
2019-06-07T12:43:43.088Z,30.02
2019-06-07T12:48:44.731Z,29.81
2019-06-07T12:53:47.870Z,29.95
2019-06-07T12:58:49.839Z,30.20
2019-06-07T13:03:51.743Z,30.02
2019-06-07T13:08:53.383Z,29.33
2019-06-07T13:13:55.357Z,28.73
2019-06-07T13:18:57.162Z,29.05
2019-06-07T13:23:58.811Z,29.32
2019-06-07T13:29:01.021Z,29.53
2019-06-07T13:34:03.048Z,29.69
2019-06-07T13:39:05.614Z,28.98
2019-06-07T13:44:07.477Z,28.59
2019-06-07T13:49:09.412Z,28.30
2019-06-07T13:54:11.106Z,28.46
2019-06-07T13:59:14.054Z,28.35
2019-06-07T14:04:15.747Z,28.14
2019-06-07T14:09:17.555Z,27.91
2019-06-07T14:14:20.161Z,27.64
2019-06-07T14:19:24.361Z,27.52
2019-06-07T14:24:27.062Z,27.55
2019-06-07T14:29:30.124Z,27.67
2019-06-07T14:34:32.676Z,27.75
2019-06-07T14:39:34.803Z,27.77
2019-06-07T14:44:36.687Z,27.87
2019-06-07T14:49:38.579Z,27.92
2019-06-07T14:54:40.343Z,28.00
2019-06-07T14:59:43.375Z,27.97
2019-06-07T15:04:45.559Z,27.97
2019-06-07T15:09:49.828Z,28.01
2019-06-07T15:14:52.716Z,28.22
2019-06-07T15:19:55.537Z,28.28
2019-06-07T15:24:57.722Z,28.16
2019-06-07T15:29:59.751Z,27.83
2019-06-07T15:35:02.929Z,27.78
2019-06-07T15:40:05.322Z,27.67
2019-06-07T15:45:11.280Z,27.72
2019-06-07T15:50:13.789Z,27.80
2019-06-07T15:55:17.535Z,27.84
2019-06-07T16:00:19.966Z,27.28
2019-06-07T16:05:22.213Z,27.01
2019-06-07T16:10:24.509Z,26.78
2019-06-07T16:15:26.517Z,26.73
2019-06-07T16:20:28.225Z,26.69
2019-06-07T16:25:30.133Z,26.81
2019-06-07T16:30:32.041Z,26.55
2019-06-07T16:35:34.879Z,26.43
2019-06-07T16:40:38.353Z,26.18
2019-06-07T16:45:40.816Z,25.93
2019-06-07T16:50:43.059Z,25.58
2019-06-07T16:55:47.235Z,25.59
2019-06-07T17:00:49.048Z,25.63
2019-06-07T17:05:50.917Z,25.23
2019-06-07T17:10:52.767Z,25.28
2019-06-07T17:15:54.710Z,24.65
2019-06-07T17:20:56.551Z,24.37
2019-06-07T17:25:58.434Z,24.44
2019-06-07T17:31:01.291Z,24.72
2019-06-07T17:36:03.368Z,24.46
2019-06-07T17:41:05.306Z,24.20
2019-06-07T17:46:07.244Z,24.10
2019-06-07T17:51:09.183Z,24.08
2019-06-07T17:56:11.102Z,24.18
2019-06-07T18:01:13.129Z,24.32
2019-06-07T18:06:16.085Z,24.17
2019-06-07T18:11:18.157Z,24.11
2019-06-07T18:16:20.150Z,23.99
2019-06-07T18:21:22.060Z,23.88
2019-06-07T18:26:23.998Z,23.76
2019-06-07T18:31:25.906Z,23.31
2019-06-07T18:36:27.943Z,22.90
2019-06-07T18:41:29.883Z,22.90
2019-06-07T18:46:31.952Z,22.92
2019-06-07T18:51:34.218Z,22.54
2019-06-07T18:56:36.770Z,22.43
2019-06-07T19:01:40.533Z,22.55
2019-06-07T19:06:43.660Z,22.40
2019-06-07T19:11:45.905Z,22.51
2019-06-07T19:16:49.335Z,22.35
2019-06-07T19:21:52.040Z,22.24
2019-06-07T19:26:54.484Z,22.21
2019-06-07T19:31:59.081Z,22.07
2019-06-07T19:37:02.125Z,21.75
2019-06-07T19:42:05.315Z,21.80
2019-06-07T19:47:07.323Z,21.73
2019-06-07T19:52:09.275Z,21.70
2019-06-07T19:57:12.684Z,21.48
2019-06-07T20:02:18.268Z,21.56
2019-06-07T20:07:21.247Z,21.33
2019-06-07T20:12:24.031Z,21.23
2019-06-07T20:17:26.326Z,21.24
2019-06-07T20:22:28.410Z,21.25
2019-06-07T20:27:30.416Z,21.29
2019-06-07T20:32:32.328Z,20.79
2019-06-07T20:37:34.395Z,20.79
2019-06-07T20:42:36.317Z,20.74
2019-06-07T20:47:39.237Z,20.65
2019-06-07T20:52:41.164Z,20.61
2019-06-07T20:57:43.120Z,20.55
2019-06-07T21:02:45.173Z,20.44
2019-06-07T21:07:47.141Z,20.51
2019-06-07T21:12:49.192Z,20.26
2019-06-07T21:17:51.082Z,20.32
2019-06-07T21:22:52.943Z,20.31
2019-06-07T21:27:54.877Z,20.00
2019-06-07T21:32:56.814Z,19.95
2019-06-07T21:37:58.706Z,20.12
2019-06-07T21:43:00.864Z,19.90
2019-06-07T21:48:05.212Z,19.78
2019-06-07T21:53:08.626Z,19.62
2019-06-07T21:58:11.240Z,19.62
2019-06-07T22:03:14.662Z,19.61
2019-06-07T22:08:16.646Z,19.56
2019-06-07T22:13:18.523Z,19.43
2019-06-07T22:18:20.486Z,19.44
2019-06-07T22:23:22.440Z,19.46
2019-06-07T22:28:24.468Z,19.32
2019-06-07T22:33:26.451Z,19.42
2019-06-07T22:38:28.296Z,19.30
2019-06-07T22:43:30.113Z,19.20
2019-06-07T22:48:31.979Z,19.21
2019-06-07T22:53:36.684Z,18.97
2019-06-07T22:58:38.666Z,18.95
2019-06-07T23:03:40.479Z,18.94
2019-06-07T23:08:42.360Z,18.77
2019-06-07T23:13:44.203Z,18.87
2019-06-07T23:18:46.095Z,18.65
2019-06-07T23:23:47.967Z,18.48
2019-06-07T23:28:49.769Z,18.69
2019-06-07T23:33:51.763Z,18.67
2019-06-07T23:38:53.794Z,18.36
2019-06-07T23:43:55.733Z,18.05
2019-06-07T23:48:57.961Z,17.86
2019-06-07T23:53:59.846Z,17.81
2019-06-07T23:59:01.824Z,17.94
